createdAt,value
2023-03-20T00:01:49.330Z,14.37
2023-03-20T00:04:16.734Z,11.87
2023-03-20T00:06:44.074Z,10.60
2023-03-20T00:09:11.263Z,10.47
2023-03-20T00:11:58.261Z,14.73
2023-03-20T00:17:36.974Z,11.67
2023-03-20T00:20:04.529Z,14.67
2023-03-20T00:22:31.756Z,12.67
2023-03-20T00:24:58.952Z,10.73
2023-03-20T00:27:35.149Z,10.57
2023-03-20T00:30:02.547Z,8.90
2023-03-20T00:32:29.772Z,12.87
2023-03-20T00:34:59.502Z,13.80
2023-03-20T00:37:26.775Z,12.33
2023-03-20T00:39:54.105Z,12.70
2023-03-20T00:42:22.294Z,12.40
2023-03-20T00:44:51.127Z,8.13
2023-03-20T00:47:19.679Z,10.77
2023-03-20T00:49:47.734Z,12.97
2023-03-20T00:56:04.228Z,12.13
2023-03-20T00:58:33.523Z,8.67
2023-03-20T01:01:00.857Z,10.63
2023-03-20T01:03:28.231Z,12.10
2023-03-20T01:05:55.522Z,9.37
2023-03-20T01:08:23.872Z,8.77
2023-03-20T01:13:50.996Z,15.40
2023-03-20T01:16:20.569Z,10.83
2023-03-20T01:18:48.868Z,9.20
2023-03-20T01:21:37.974Z,14.03
2023-03-20T01:24:27.410Z,14.33
2023-03-20T01:26:54.870Z,10.63
2023-03-20T01:29:24.575Z,14.13
2023-03-20T01:31:52.698Z,12.20
2023-03-20T01:34:21.297Z,9.13
2023-03-20T01:36:50.502Z,10.93
2023-03-20T01:39:39.385Z,12.80
2023-03-20T01:42:07.034Z,11.60
2023-03-20T01:44:37.270Z,13.73
2023-03-20T01:47:12.477Z,12.67
2023-03-20T01:53:40.475Z,13.37
2023-03-20T01:56:14.711Z,11.77
2023-03-20T01:58:49.544Z,14.00
2023-03-20T02:01:18.767Z,13.77
2023-03-20T02:03:49.076Z,17.07
2023-03-20T02:06:40.591Z,14.70
2023-03-20T02:12:04.167Z,12.43
2023-03-20T02:14:32.027Z,8.67
2023-03-20T02:17:29.838Z,11.27
2023-03-20T02:20:05.349Z,15.63
2023-03-20T02:22:53.684Z,12.80
2023-03-20T02:32:49.621Z,15.37
2023-03-20T02:35:44.171Z,12.77
2023-03-20T02:38:21.254Z,12.50
2023-03-20T02:40:54.639Z,16.23
2023-03-20T02:43:25.666Z,13.67
2023-03-20T02:46:25.006Z,15.77
2023-03-20T02:48:54.907Z,11.83
2023-03-20T02:51:27.848Z,15.70
2023-03-20T02:54:06.676Z,12.30
2023-03-20T02:57:02.522Z,11.00
2023-03-20T02:59:42.399Z,12.97
2023-03-20T03:02:10.323Z,13.57
2023-03-20T03:04:39.545Z,16.87
2023-03-20T03:07:08.522Z,12.70
2023-03-20T03:09:39.870Z,13.87
2023-03-20T03:12:11.025Z,17.27
2023-03-20T03:14:40.076Z,14.97
2023-03-20T03:17:13.409Z,13.83
2023-03-20T03:19:43.879Z,12.43
2023-03-20T03:22:11.831Z,10.40
2023-03-20T03:28:30.587Z,11.47
2023-03-20T03:30:58.525Z,10.47
2023-03-20T03:33:27.200Z,8.10
2023-03-20T03:35:56.630Z,12.03
2023-03-20T03:38:43.614Z,19.13
2023-03-20T03:41:19.026Z,12.87
2023-03-20T03:43:53.435Z,10.83
2023-03-20T03:46:25.521Z,10.93
2023-03-20T03:48:55.996Z,12.27
2023-03-20T03:51:24.622Z,11.00
2023-03-20T03:54:02.193Z,14.63
2023-03-20T03:56:31.730Z,12.17
2023-03-20T04:02:47.980Z,17.67
2023-03-20T04:05:17.009Z,10.10
2023-03-20T04:07:45.453Z,15.90
2023-03-20T04:10:12.792Z,14.53
2023-03-20T04:12:56.591Z,19.47
2023-03-20T04:15:24.067Z,13.80
2023-03-20T04:17:52.731Z,14.63
2023-03-20T04:20:20.354Z,10.20
2023-03-20T04:22:48.779Z,15.03
2023-03-20T04:25:18.165Z,13.13
2023-03-20T04:28:04.558Z,13.90
2023-03-20T04:30:55.562Z,17.07
2023-03-20T04:33:35.118Z,11.70
2023-03-20T04:36:21.167Z,14.00
2023-03-20T04:39:11.606Z,14.60
2023-03-20T04:42:02.879Z,17.87
2023-03-20T04:44:30.374Z,13.03
2023-03-20T04:46:58.540Z,16.73
2023-03-20T04:49:27.133Z,10.57
2023-03-20T04:51:54.871Z,15.10
2023-03-20T04:54:34.907Z,13.77
2023-03-20T04:57:02.717Z,16.63
2023-03-20T04:59:42.463Z,16.83
2023-03-20T05:02:09.767Z,12.83
2023-03-20T05:04:39.312Z,17.23
2023-03-20T05:07:06.937Z,14.77
2023-03-20T05:10:08.223Z,15.90
2023-03-20T05:13:01.124Z,9.80
2023-03-20T05:15:44.827Z,17.00
2023-03-20T05:18:37.734Z,12.30
2023-03-20T05:21:26.008Z,12.43
2023-03-20T05:24:11.582Z,19.73
2023-03-20T05:26:41.480Z,14.27
2023-03-20T05:29:36.068Z,16.13
2023-03-20T05:32:27.744Z,14.53
2023-03-20T05:34:57.836Z,13.60
2023-03-20T05:37:35.764Z,18.17
2023-03-20T05:40:29.662Z,19.23
2023-03-20T05:47:10.674Z,14.83
2023-03-20T05:49:56.606Z,14.27
2023-03-20T05:52:42.434Z,13.80
2023-03-20T05:55:19.937Z,13.63
2023-03-20T05:58:03.393Z,18.80
2023-03-20T06:00:50.632Z,13.60
2023-03-20T06:03:41.472Z,13.10
2023-03-20T06:06:14.605Z,14.10
2023-03-20T06:08:43.496Z,13.93
2023-03-20T06:11:11.105Z,12.47
2023-03-20T06:13:39.584Z,11.63
2023-03-20T06:16:07.690Z,10.77
2023-03-20T06:18:36.602Z,16.63
2023-03-20T06:21:04.411Z,17.20
2023-03-20T06:23:52.129Z,11.03
2023-03-20T06:26:53.440Z,14.27
2023-03-20T06:29:20.804Z,14.33
2023-03-20T06:31:50.404Z,14.27
2023-03-20T06:34:26.189Z,10.37
2023-03-20T06:36:53.438Z,11.73
2023-03-20T06:39:25.093Z,17.57
2023-03-20T06:42:12.280Z,14.97
2023-03-20T06:44:41.936Z,15.63
2023-03-20T06:47:15.533Z,12.40
2023-03-20T06:49:45.934Z,16.13
2023-03-20T06:59:00.234Z,11.53
2023-03-20T07:01:27.919Z,11.37
2023-03-20T07:03:55.737Z,13.07
2023-03-20T07:06:28.286Z,12.57
2023-03-20T07:08:55.581Z,13.83
2023-03-20T07:11:23.135Z,12.50
2023-03-20T07:13:53.524Z,9.20
2023-03-20T07:16:57.527Z,18.10
2023-03-20T07:19:24.964Z,14.30
2023-03-20T07:21:59.705Z,13.27
2023-03-20T07:24:26.991Z,10.13
2023-03-20T07:26:54.248Z,11.20
2023-03-20T07:29:22.031Z,15.70
2023-03-20T07:31:49.611Z,14.40
2023-03-20T07:34:27.173Z,16.07
2023-03-20T07:36:55.777Z,10.30
2023-03-20T07:39:23.464Z,14.10
2023-03-20T07:42:13.598Z,10.77
2023-03-20T07:44:50.986Z,14.33
2023-03-20T07:47:18.322Z,13.97
2023-03-20T07:49:46.911Z,12.53
2023-03-20T07:52:14.788Z,10.97
2023-03-20T07:54:42.061Z,10.80
2023-03-20T07:57:09.469Z,13.07
2023-03-20T07:59:36.721Z,12.27
2023-03-20T08:02:03.944Z,14.60
2023-03-20T08:04:31.258Z,12.67
2023-03-20T08:07:00.133Z,11.87
2023-03-20T08:09:27.669Z,10.17
2023-03-20T08:11:55.089Z,11.73
2023-03-20T08:14:22.611Z,16.60
2023-03-20T08:17:02.353Z,12.90
2023-03-20T08:19:37.207Z,12.97
2023-03-20T08:22:05.775Z,16.40
2023-03-20T08:24:33.081Z,9.00
2023-03-20T08:27:00.261Z,14.60
2023-03-20T08:29:27.824Z,12.10
2023-03-20T08:31:55.116Z,13.20
2023-03-20T08:34:24.132Z,13.87
2023-03-20T08:36:51.448Z,11.80
2023-03-20T08:39:20.114Z,12.63
2023-03-20T08:41:47.404Z,9.23
2023-03-20T08:44:14.854Z,9.97
2023-03-20T08:46:42.095Z,13.67
2023-03-20T08:49:09.330Z,9.93
2023-03-20T08:51:36.702Z,12.07
2023-03-20T08:54:03.892Z,12.43
2023-03-20T08:56:32.462Z,9.93
2023-03-20T08:58:59.793Z,18.77
2023-03-20T09:01:41.784Z,10.10
2023-03-20T09:04:14.749Z,18.43
2023-03-20T09:06:42.083Z,13.30
2023-03-20T09:09:09.534Z,12.50
2023-03-20T09:11:38.344Z,11.50
2023-03-20T09:14:05.621Z,13.00
2023-03-20T09:16:32.867Z,11.10
2023-03-20T09:19:00.324Z,13.03
2023-03-20T09:21:27.835Z,14.83
2023-03-20T09:23:55.186Z,13.93
2023-03-20T09:26:22.437Z,16.67
2023-03-20T09:28:51.289Z,13.17
2023-03-20T09:31:18.621Z,15.33
2023-03-20T09:33:45.946Z,19.87
2023-03-20T09:36:13.440Z,12.90
2023-03-20T09:38:40.724Z,16.73
2023-03-20T09:41:08.185Z,17.73
2023-03-20T09:43:53.056Z,15.20
2023-03-20T09:46:25.816Z,15.87
2023-03-20T09:48:59.258Z,16.07
2023-03-20T09:51:32.503Z,16.80
2023-03-20T09:54:02.959Z,14.47
2023-03-20T09:56:31.397Z,18.70
2023-03-20T09:59:01.352Z,21.70
2023-03-20T10:01:32.095Z,17.90
2023-03-20T10:04:01.518Z,19.40
2023-03-20T10:06:35.147Z,16.23
2023-03-20T10:09:03.155Z,16.00
2023-03-20T10:11:39.398Z,16.20
2023-03-20T10:14:16.234Z,17.50
2023-03-20T10:16:52.127Z,15.80
2023-03-20T10:19:23.588Z,17.00
2023-03-20T10:21:52.822Z,17.57
2023-03-20T10:24:23.504Z,16.23
2023-03-20T10:26:52.320Z,18.27
2023-03-20T10:29:24.936Z,22.73
2023-03-20T10:31:56.516Z,16.87
2023-03-20T10:34:32.269Z,21.27
2023-03-20T10:37:04.812Z,13.27
2023-03-20T10:39:38.773Z,19.97
2023-03-20T10:42:11.969Z,18.43
2023-03-20T10:44:41.781Z,19.87
2023-03-20T10:47:10.951Z,17.73
2023-03-20T10:49:39.808Z,15.50
2023-03-20T10:52:11.431Z,16.93
2023-03-20T10:54:41.325Z,15.20
2023-03-20T10:57:11.743Z,14.63
2023-03-20T10:59:40.290Z,16.97
2023-03-20T11:02:12.324Z,15.63
2023-03-20T11:04:40.272Z,20.30
2023-03-20T11:07:12.864Z,21.73
2023-03-20T11:09:40.139Z,21.47
2023-03-20T11:12:25.747Z,20.93
2023-03-20T11:14:58.100Z,21.03
2023-03-20T11:17:29.183Z,15.37
2023-03-20T11:20:03.144Z,16.43
2023-03-20T11:28:52.242Z,18.10
2023-03-20T11:31:21.076Z,17.00
2023-03-20T11:33:53.751Z,18.50
2023-03-20T11:36:22.934Z,19.63
2023-03-20T11:38:51.081Z,14.03
2023-03-20T11:44:00.839Z,20.67
2023-03-20T11:46:28.245Z,12.10
2023-03-20T11:49:07.377Z,16.40
2023-03-20T11:58:40.690Z,17.20
2023-03-20T12:01:09.173Z,14.17
2023-03-20T12:03:44.314Z,14.10
2023-03-20T12:06:16.494Z,13.93
2023-03-20T12:08:46.841Z,17.17
2023-03-20T12:13:50.625Z,13.03
2023-03-20T12:16:20.068Z,11.47
2023-03-20T12:18:49.224Z,12.93
2023-03-20T12:21:23.239Z,12.97
2023-03-20T12:23:53.040Z,11.67
2023-03-20T12:26:40.830Z,12.93
2023-03-20T12:29:31.057Z,13.10
2023-03-20T12:32:07.570Z,11.17
2023-03-20T12:34:43.410Z,10.93
2023-03-20T12:37:12.628Z,11.70
2023-03-20T12:39:54.364Z,9.43
2023-03-20T12:42:28.255Z,10.97
2023-03-20T12:48:25.096Z,11.33
2023-03-20T12:50:55.805Z,10.63
2023-03-20T12:53:35.378Z,8.73
2023-03-20T12:56:26.869Z,8.93
2023-03-20T13:02:51.153Z,7.10
2023-03-20T13:05:25.843Z,8.17
2023-03-20T13:07:59.643Z,10.00
2023-03-20T13:10:32.116Z,6.87
2023-03-20T13:13:04.165Z,7.37
2023-03-20T13:15:52.190Z,6.20
2023-03-20T13:18:22.715Z,7.23
2023-03-20T13:20:51.478Z,6.67
2023-03-20T13:23:21.596Z,6.80
2023-03-20T13:32:14.089Z,7.30
2023-03-20T13:34:52.794Z,8.10
2023-03-20T13:37:24.777Z,10.30
2023-03-20T13:39:59.087Z,15.10
2023-03-20T13:42:29.918Z,16.57
2023-03-20T13:47:42.331Z,16.77
2023-03-20T13:50:17.320Z,12.47
2023-03-20T13:52:48.987Z,15.37
2023-03-20T13:55:36.074Z,11.73
2023-03-20T14:01:59.961Z,16.43
2023-03-20T14:04:28.950Z,14.17
2023-03-20T14:06:56.987Z,16.83
2023-03-20T14:09:34.678Z,20.23
2023-03-20T14:12:03.777Z,13.40
2023-03-20T14:14:52.787Z,17.67
2023-03-20T14:17:21.227Z,16.77
2023-03-20T14:19:50.180Z,15.93
2023-03-20T14:22:19.296Z,20.27
2023-03-20T14:25:06.220Z,16.53
2023-03-20T14:31:27.780Z,14.30
2023-03-20T14:33:59.927Z,18.27
2023-03-20T14:36:29.766Z,17.70
2023-03-20T14:39:06.212Z,15.67
2023-03-20T14:41:38.414Z,12.57
2023-03-20T14:44:09.890Z,11.37
2023-03-20T14:46:44.729Z,12.03
2023-03-20T14:49:23.801Z,6.57
2023-03-20T14:51:54.721Z,8.27
2023-03-20T14:54:26.666Z,11.30
2023-03-20T14:56:54.082Z,7.10
2023-03-20T14:59:36.770Z,7.43
2023-03-20T15:02:04.666Z,10.03
2023-03-20T15:04:38.738Z,8.73
2023-03-20T15:07:11.727Z,9.37
2023-03-20T15:16:25.842Z,8.77
2023-03-20T15:18:53.663Z,12.33
2023-03-20T15:21:21.636Z,11.40
2023-03-20T15:23:50.303Z,10.27
2023-03-20T15:26:18.725Z,12.03
2023-03-20T15:29:02.235Z,8.63
2023-03-20T15:31:30.389Z,11.47
2023-03-20T15:33:58.029Z,8.23
2023-03-20T15:36:27.068Z,12.80
2023-03-20T15:39:16.169Z,9.53
2023-03-20T15:42:11.862Z,12.47
2023-03-20T15:44:49.170Z,14.97
2023-03-20T15:47:17.443Z,9.53
2023-03-20T15:49:49.422Z,9.17
2023-03-20T15:52:19.023Z,7.73
2023-03-20T15:54:49.024Z,8.80
2023-03-20T15:57:20.170Z,10.83
2023-03-20T16:00:03.819Z,11.97
2023-03-20T16:02:34.038Z,13.60
2023-03-20T16:05:01.385Z,16.83
2023-03-20T16:07:30.572Z,10.97
2023-03-20T16:13:17.153Z,18.10
2023-03-20T16:15:45.159Z,13.43
2023-03-20T16:18:15.102Z,7.13
2023-03-20T16:20:44.323Z,9.77
2023-03-20T16:23:11.836Z,8.87
2023-03-20T16:25:40.783Z,9.27
2023-03-20T16:30:51.832Z,7.57
2023-03-20T16:33:20.620Z,6.70
2023-03-20T16:35:49.337Z,15.30
2023-03-20T16:38:17.629Z,8.10
2023-03-20T16:40:46.300Z,10.83
2023-03-20T16:50:34.957Z,4.90
2023-03-20T16:53:02.865Z,6.30
2023-03-20T16:55:31.629Z,7.77
2023-03-20T16:58:09.881Z,5.97
2023-03-20T17:00:43.202Z,8.33
2023-03-20T17:03:14.301Z,5.57
2023-03-20T17:05:49.844Z,6.87
2023-03-20T17:08:18.510Z,11.20
2023-03-20T17:10:57.905Z,6.30
2023-03-20T17:13:42.328Z,8.40
2023-03-20T17:16:11.116Z,8.80
2023-03-20T17:18:38.487Z,5.20
2023-03-20T17:21:06.001Z,5.03
2023-03-20T17:27:32.682Z,5.40
2023-03-20T17:30:01.255Z,9.20
2023-03-20T17:32:28.551Z,9.97
2023-03-20T17:34:56.961Z,6.70
2023-03-20T17:37:28.352Z,6.70
2023-03-20T17:39:56.763Z,6.83
2023-03-20T17:42:24.825Z,9.07
2023-03-20T17:44:52.085Z,4.13
2023-03-20T17:47:22.670Z,2.93
2023-03-20T17:49:50.443Z,2.67
2023-03-20T17:52:18.672Z,3.30
2023-03-20T17:54:46.406Z,7.93
2023-03-20T17:57:19.418Z,4.03
2023-03-20T17:59:46.673Z,2.30
2023-03-20T18:02:14.056Z,4.90
2023-03-20T18:04:42.851Z,5.07
2023-03-20T18:07:10.422Z,4.87
2023-03-20T18:09:37.752Z,2.27
2023-03-20T18:12:05.262Z,3.83
2023-03-20T18:14:32.482Z,2.43
2023-03-20T18:16:59.749Z,2.93
2023-03-20T18:19:28.050Z,2.13
2023-03-20T18:21:57.003Z,3.07
2023-03-20T18:24:24.576Z,4.27
2023-03-20T18:26:52.310Z,3.20
2023-03-20T18:29:19.714Z,3.27
2023-03-20T18:31:47.209Z,3.00
2023-03-20T18:34:14.617Z,4.20
2023-03-20T18:36:41.886Z,3.67
2023-03-20T18:39:12.228Z,5.27
2023-03-20T18:41:39.470Z,4.10
2023-03-20T18:44:06.687Z,3.83
2023-03-20T18:46:34.030Z,3.63
2023-03-20T18:49:01.369Z,4.83
2023-03-20T18:51:28.766Z,3.53
2023-03-20T18:53:56.008Z,3.23
2023-03-20T18:56:25.649Z,2.23
2023-03-20T18:58:53.604Z,4.63
2023-03-20T19:01:21.503Z,3.00
2023-03-20T19:03:48.898Z,2.87
2023-03-20T19:06:17.129Z,3.07
2023-03-20T19:08:45.004Z,3.50
2023-03-20T19:11:12.359Z,2.93
2023-03-20T19:13:40.968Z,2.30
2023-03-20T19:16:13.671Z,3.17
2023-03-20T19:18:40.989Z,2.37
2023-03-20T19:21:08.270Z,2.50
2023-03-20T19:23:35.540Z,2.57
2023-03-20T19:26:02.830Z,2.20
2023-03-20T19:28:39.118Z,4.17
2023-03-20T19:31:09.217Z,3.57
2023-03-20T19:33:37.145Z,4.03
2023-03-20T19:36:05.025Z,2.30
2023-03-20T19:38:32.751Z,2.93
2023-03-20T19:41:00.231Z,3.07
2023-03-20T19:43:28.974Z,3.40
2023-03-20T19:45:59.100Z,4.63
2023-03-20T19:48:43.285Z,3.30
2023-03-20T19:51:17.156Z,3.93
2023-03-20T19:53:44.546Z,3.87
2023-03-20T19:56:12.099Z,4.93
2023-03-20T19:58:39.429Z,3.90
2023-03-20T20:01:14.769Z,4.17
2023-03-20T20:03:44.224Z,3.53
2023-03-20T20:06:12.340Z,4.23
2023-03-20T20:08:47.995Z,4.97
2023-03-20T20:11:16.311Z,5.03
2023-03-20T20:14:04.141Z,4.37
2023-03-20T20:16:30.909Z,4.70
2023-03-20T20:18:59.662Z,5.07
2023-03-20T20:24:14.372Z,4.67
2023-03-20T20:26:53.308Z,4.60
2023-03-20T20:29:21.643Z,4.43
2023-03-20T20:31:49.202Z,4.40
2023-03-20T20:39:52.573Z,4.60
2023-03-20T20:42:19.980Z,4.43
2023-03-20T20:44:47.414Z,5.47
2023-03-20T20:47:15.297Z,5.13
2023-03-20T20:49:46.741Z,6.00
2023-03-20T20:52:14.588Z,6.17
2023-03-20T20:54:41.932Z,6.97
2023-03-20T20:57:11.176Z,6.70
2023-03-20T20:59:38.858Z,8.63
2023-03-20T21:02:06.277Z,7.43
2023-03-20T21:04:33.991Z,7.47
2023-03-20T21:07:11.463Z,6.70
2023-03-20T21:09:40.341Z,7.43
2023-03-20T21:12:08.454Z,6.90
2023-03-20T21:14:36.407Z,5.27
2023-03-20T21:17:03.709Z,7.57
2023-03-20T21:19:31.736Z,6.63
2023-03-20T21:21:59.003Z,7.17
2023-03-20T21:24:33.241Z,6.57
2023-03-20T21:27:01.450Z,7.83
2023-03-20T21:29:28.823Z,6.47
2023-03-20T21:31:56.173Z,7.10
2023-03-20T21:34:23.706Z,8.97
2023-03-20T21:36:50.923Z,6.20
2023-03-20T21:39:18.192Z,7.90
2023-03-20T21:41:47.209Z,7.07
2023-03-20T21:44:17.429Z,7.80
2023-03-20T21:47:19.072Z,7.37
2023-03-20T21:56:00.030Z,6.67
2023-03-20T22:15:33.790Z,10.30
2023-03-20T22:18:19.373Z,9.60
2023-03-20T22:24:01.649Z,10.67
2023-03-20T22:29:24.554Z,10.53
2023-03-20T22:32:10.955Z,11.80
2023-03-20T22:35:22.781Z,12.33
2023-03-20T22:45:31.537Z,10.33
2023-03-20T22:48:07.005Z,11.63
2023-03-20T22:50:34.390Z,10.70
2023-03-20T22:53:01.739Z,11.83
2023-03-20T22:55:30.219Z,14.83
2023-03-20T22:58:06.779Z,11.83
2023-03-20T23:00:35.263Z,9.83
2023-03-20T23:03:17.299Z,10.53
2023-03-20T23:05:51.320Z,15.83
2023-03-20T23:08:18.537Z,10.63
2023-03-20T23:10:46.580Z,11.50
2023-03-20T23:13:14.270Z,13.07
2023-03-20T23:15:41.613Z,10.93
2023-03-20T23:18:08.858Z,11.23
2023-03-20T23:20:36.352Z,15.63
2023-03-20T23:23:05.165Z,11.70
2023-03-20T23:25:39.230Z,13.43
2023-03-20T23:28:07.840Z,13.40
2023-03-20T23:30:44.279Z,12.87
2023-03-20T23:33:15.495Z,17.60
2023-03-20T23:35:42.932Z,9.37
2023-03-20T23:38:11.905Z,13.90
2023-03-20T23:40:39.404Z,14.00
2023-03-20T23:43:06.941Z,12.63
2023-03-20T23:45:34.461Z,11.13
2023-03-20T23:48:01.835Z,10.20
2023-03-20T23:50:42.629Z,10.83
2023-03-20T23:53:20.630Z,14.27
2023-03-20T23:55:49.155Z,11.70
